createdAt,value
2016-04-28T00:00:38.809Z,87.94
2016-04-28T00:01:38.811Z,87.85
2016-04-28T00:02:38.813Z,88.23
2016-04-28T00:03:38.817Z,88.42
2016-04-28T00:04:38.805Z,87.85
2016-04-28T00:05:38.807Z,88.51
2016-04-28T00:06:38.809Z,88.7
2016-04-28T00:07:38.813Z,88.51
2016-04-28T00:08:38.815Z,88.6
2016-04-28T00:09:38.801Z,88.6
2016-04-28T00:10:39.117Z,89.07
2016-04-28T00:11:38.729Z,88.98
2016-04-28T00:12:38.810Z,89.17
2016-04-28T00:13:38.797Z,89.22
2016-04-28T00:14:38.815Z,88.93
2016-04-28T00:15:38.801Z,88.27
2016-04-28T00:16:38.805Z,88.36
2016-04-28T00:17:38.807Z,88.36
2016-04-28T00:18:38.795Z,88.36
2016-04-28T00:19:38.797Z,88.65
2016-04-28T00:20:38.800Z,88.51
2016-04-28T00:21:38.803Z,88.51
2016-04-28T00:22:38.790Z,88.51
2016-04-28T00:23:38.808Z,88.36
2016-04-28T00:24:38.795Z,88.51
2016-04-28T00:25:38.814Z,88.32
2016-04-28T00:26:38.801Z,88.32
2016-04-28T00:27:38.803Z,88.23
2016-04-28T00:28:38.790Z,88.42
2016-04-28T00:29:38.794Z,88.98
2016-04-28T00:30:38.796Z,89.17
2016-04-28T00:31:38.783Z,88.93
2016-04-28T00:32:38.801Z,89.07
2016-04-28T00:33:38.788Z,89.31
2016-04-28T00:34:38.791Z,88.79
2016-04-28T00:35:38.793Z,88.74
2016-04-28T00:36:38.812Z,89.07
2016-04-28T00:37:38.783Z,88.79
2016-04-28T00:38:38.786Z,88.79
2016-04-28T00:39:38.788Z,89.17
2016-04-28T00:40:38.713Z,88.32
2016-04-28T00:41:38.793Z,88.51
2016-04-28T00:42:38.797Z,88.7
2016-04-28T00:43:38.815Z,88.51
2016-04-28T00:44:38.787Z,88.51
2016-04-28T00:45:38.789Z,88.7
2016-04-28T00:46:38.792Z,88.51
2016-04-28T00:47:38.779Z,88.23
2016-04-28T00:48:38.781Z,88.51
2016-04-28T00:49:38.784Z,88.98
2016-04-28T00:50:38.771Z,88.89
2016-04-28T00:51:38.790Z,88.7
2016-04-28T00:52:38.776Z,88.6
2016-04-28T00:53:38.779Z,88.6
2016-04-28T00:54:38.782Z,88.32
2016-04-28T00:55:38.784Z,88.6
2016-04-28T00:56:38.819Z,88.51
2016-04-28T00:57:38.775Z,88.32
2016-04-28T00:58:38.777Z,88.32
2016-04-28T00:59:38.780Z,88.98
2016-04-28T01:00:38.783Z,88.79
2016-04-28T01:01:38.785Z,88.89
2016-04-28T01:02:38.788Z,88.89
2016-04-28T01:03:38.775Z,88.51
2016-04-28T01:04:38.763Z,88.7
2016-04-28T01:05:38.765Z,88.89
2016-04-28T01:06:38.783Z,89.17
2016-04-28T01:07:38.770Z,89.07
2016-04-28T01:08:38.773Z,89.17
2016-04-28T01:09:38.776Z,89.26
2016-04-28T01:10:38.778Z,89.17
2016-04-28T01:11:38.765Z,89.07
2016-04-28T01:12:38.768Z,88.98
2016-04-28T01:13:38.755Z,89.17
2016-04-28T01:14:38.773Z,89.07
2016-04-28T01:15:38.760Z,88.89
2016-04-28T01:16:38.763Z,88.7
2016-04-28T01:17:38.766Z,88.79
2016-04-28T01:18:38.768Z,88.98
2016-04-28T01:19:38.771Z,88.79
2016-04-28T01:20:38.758Z,89.17
2016-04-28T01:21:38.761Z,88.79
2016-04-28T01:22:38.764Z,88.79
2016-04-28T01:23:38.781Z,88.79
2016-04-28T01:24:38.769Z,88.98
2016-04-28T01:25:38.756Z,88.79
2016-04-28T01:26:38.759Z,88.79
2016-04-28T01:27:38.745Z,88.6
2016-04-28T01:28:38.764Z,88.98
2016-04-28T01:29:38.751Z,89.17
2016-04-28T01:30:38.754Z,88.89
2016-04-28T01:31:38.772Z,89.07
2016-04-28T01:32:38.774Z,89.26
2016-04-28T01:33:38.761Z,89.26
2016-04-28T01:34:38.749Z,89.36
2016-04-28T01:35:38.752Z,89.26
2016-04-28T01:36:38.754Z,89.64
2016-04-28T01:37:38.742Z,89.54
2016-04-28T01:38:38.744Z,89.73
2016-04-28T01:39:38.747Z,89.64
2016-04-28T01:40:38.749Z,89.73
2016-04-28T01:41:38.752Z,89.36
2016-04-28T01:42:38.755Z,89.54
2016-04-28T01:43:38.743Z,89.26
2016-04-28T01:44:38.745Z,89.26
2016-04-28T01:45:38.747Z,89.07
2016-04-28T01:46:38.751Z,88.93
2016-04-28T01:47:38.737Z,88.79
2016-04-28T01:48:38.740Z,88.7
2016-04-28T01:49:38.742Z,89.03
2016-04-28T01:50:38.746Z,89.12
2016-04-28T01:51:38.748Z,88.56
2016-04-28T01:52:38.734Z,88.65
2016-04-28T01:53:38.738Z,88.84
2016-04-28T01:54:38.740Z,88.84
2016-04-28T01:55:38.743Z,89.03
2016-04-28T01:56:40.730Z,88.84
2016-04-28T01:57:38.733Z,89.03
2016-04-28T01:58:38.735Z,89.12
2016-04-28T01:59:38.739Z,89.12
2016-04-28T02:00:38.741Z,89.03
2016-04-28T02:01:38.743Z,88.84
2016-04-28T02:02:38.731Z,88.75
2016-04-28T02:03:38.733Z,88.56
2016-04-28T02:04:38.736Z,88.84
2016-04-28T02:05:38.722Z,88.93
2016-04-28T02:06:38.725Z,88.65
2016-04-28T02:07:38.728Z,88.93
2016-04-28T02:08:38.731Z,89.03
2016-04-28T02:09:38.733Z,88.65
2016-04-28T02:10:38.721Z,89.12
2016-04-28T02:11:39.818Z,89.03
2016-04-28T02:12:38.726Z,89.12
2016-04-28T02:13:38.729Z,89.4
2016-04-28T02:14:38.731Z,89.4
2016-04-28T02:15:38.719Z,89.69
2016-04-28T02:16:38.721Z,89.88
2016-04-28T02:17:38.724Z,90.07
2016-04-28T02:18:38.712Z,89.59
2016-04-28T02:19:38.714Z,90.07
2016-04-28T02:20:38.717Z,89.78
2016-04-28T02:21:38.719Z,89.88
2016-04-28T02:22:38.727Z,90.07
2016-04-28T02:23:38.715Z,90.16
2016-04-28T02:24:38.718Z,89.59
2016-04-28T02:25:38.720Z,89.59
2016-04-28T02:26:38.567Z,89.69
2016-04-28T02:27:38.725Z,89.69
2016-04-28T02:28:38.713Z,89.22
2016-04-28T02:29:38.715Z,89.12
2016-04-28T02:30:38.718Z,89.22
2016-04-28T02:31:38.720Z,89.22
2016-04-28T02:32:38.708Z,89.22
2016-04-28T02:33:38.711Z,89.31
2016-04-28T02:34:38.713Z,89.4
2016-04-28T02:35:38.717Z,89.03
2016-04-28T02:36:38.703Z,89.03
2016-04-28T02:37:38.722Z,89.59
2016-04-28T02:38:38.708Z,89.22
2016-04-28T02:39:38.726Z,89.4
2016-04-28T02:40:38.698Z,90.07
2016-04-28T02:41:38.795Z,90.07
2016-04-28T02:42:38.703Z,90.16
2016-04-28T02:43:38.705Z,90.16
2016-04-28T02:44:38.709Z,89.97
2016-04-28T02:45:38.696Z,89.31
2016-04-28T02:46:38.699Z,89.22
2016-04-28T02:47:38.716Z,89.31
2016-04-28T02:48:38.705Z,90.07
2016-04-28T02:49:38.707Z,90.07
2016-04-28T02:50:38.693Z,89.4
2016-04-28T02:51:38.696Z,89.4
2016-04-28T02:52:38.698Z,89.88
2016-04-28T02:53:38.686Z,90.07
2016-04-28T02:54:38.704Z,89.97
2016-04-28T02:55:38.691Z,89.59
2016-04-28T02:56:39.366Z,89.69
2016-04-28T02:57:38.696Z,89.59
2016-04-28T02:58:38.699Z,89.97
2016-04-28T02:59:38.701Z,90.07
2016-04-28T03:00:38.690Z,89.97
2016-04-28T03:01:38.692Z,90.07
2016-04-28T03:02:38.695Z,89.97
2016-04-28T03:03:38.681Z,90.16
2016-04-28T03:04:38.684Z,90.26
2016-04-28T03:05:38.687Z,90.16
2016-04-28T03:06:38.689Z,90.35
2016-04-28T03:07:38.677Z,90.35
2016-04-28T03:08:38.680Z,90.45
2016-04-28T03:09:38.683Z,90.64
2016-04-28T03:10:38.685Z,90.73
2016-04-28T03:11:38.688Z,90.64
2016-04-28T03:12:38.675Z,90.82
2016-04-28T03:13:38.677Z,91.01
2016-04-28T03:14:38.680Z,90.73
2016-04-28T03:15:38.683Z,90.64
2016-04-28T03:16:38.669Z,90.73
2016-04-28T03:17:38.672Z,91.11
2016-04-28T03:18:38.675Z,90.82
2016-04-28T03:19:38.677Z,90.92
2016-04-28T03:20:38.680Z,91.11
2016-04-28T03:21:38.683Z,90.73
2016-04-28T03:22:38.671Z,90.73
2016-04-28T03:23:38.673Z,90.92
2016-04-28T03:24:38.676Z,90.82
2016-04-28T03:25:38.522Z,90.82
2016-04-28T03:26:39.087Z,90.54
2016-04-28T03:27:38.668Z,90.64
2016-04-28T03:28:38.670Z,90.82
2016-04-28T03:29:38.658Z,90.82
2016-04-28T03:30:38.660Z,90.92
2016-04-28T03:31:38.663Z,91.49
2016-04-28T03:32:38.665Z,91.3
2016-04-28T03:33:38.653Z,91.49
2016-04-28T03:34:38.671Z,91.49
2016-04-28T03:35:38.673Z,91.49
2016-04-28T03:36:38.661Z,91.39
2016-04-28T03:37:38.664Z,91.39
2016-04-28T03:38:38.667Z,91.39
2016-04-28T03:39:38.669Z,91.11
2016-04-28T03:40:38.655Z,91.3
2016-04-28T03:41:38.534Z,91.2
2016-04-28T03:42:38.661Z,91.2
2016-04-28T03:43:38.664Z,91.2
2016-04-28T03:44:38.651Z,91.3
2016-04-28T03:45:38.655Z,91.3
2016-04-28T03:46:38.657Z,91.3
2016-04-28T03:47:38.659Z,91.49
2016-04-28T03:48:38.663Z,91.58
2016-04-28T03:49:38.649Z,91.49
2016-04-28T03:50:38.652Z,90.92
2016-04-28T03:51:38.638Z,90.73
2016-04-28T03:52:38.641Z,90.82
2016-04-28T03:53:38.644Z,90.92
2016-04-28T03:54:38.646Z,90.73
2016-04-28T03:55:38.634Z,90.92
2016-04-28T03:56:38.730Z,91.2
2016-04-28T03:57:38.640Z,91.49
2016-04-28T03:58:38.642Z,91.3
2016-04-28T03:59:38.645Z,91.11
2016-04-28T04:00:38.648Z,91.49
2016-04-28T04:01:38.651Z,91.2
2016-04-28T04:02:38.653Z,91.01
2016-04-28T04:03:38.656Z,90.82
2016-04-28T04:04:38.487Z,90.92
2016-04-28T04:05:38.645Z,91.01
2016-04-28T04:06:38.632Z,90.92
2016-04-28T04:07:38.650Z,90.92
2016-04-28T04:08:38.637Z,90.54
2016-04-28T04:09:38.640Z,90.64
2016-04-28T04:10:38.643Z,90.64
2016-04-28T04:11:38.630Z,90.92
2016-04-28T04:12:38.633Z,90.92
2016-04-28T04:13:38.636Z,90.92
2016-04-28T04:14:38.638Z,90.73
2016-04-28T04:15:38.641Z,90.82
2016-04-28T04:16:38.628Z,91.11
2016-04-28T04:17:38.631Z,91.58
2016-04-28T04:18:38.633Z,91.49
2016-04-28T04:19:38.635Z,91.39
2016-04-28T04:20:38.624Z,91.39
2016-04-28T04:21:38.626Z,91.11
2016-04-28T04:22:38.613Z,91.39
2016-04-28T04:23:38.631Z,91.49
2016-04-28T04:24:38.635Z,91.49
2016-04-28T04:25:38.621Z,91.58
2016-04-28T04:26:38.796Z,91.63
2016-04-28T04:27:38.610Z,91.77
2016-04-28T04:28:38.613Z,91.49
2016-04-28T04:29:38.616Z,91.72
2016-04-28T04:30:38.618Z,91.34
2016-04-28T04:31:38.606Z,91.06
2016-04-28T04:32:38.609Z,91.06
2016-04-28T04:33:38.626Z,91.25
2016-04-28T04:34:38.614Z,91.34
2016-04-28T04:35:38.616Z,91.44
2016-04-28T04:36:38.620Z,91.91
2016-04-28T04:37:38.606Z,91.53
2016-04-28T04:38:38.609Z,91.53
2016-04-28T04:39:38.612Z,91.63
2016-04-28T04:40:38.614Z,91.34
2016-04-28T04:41:38.617Z,91.53
2016-04-28T04:42:38.619Z,91.91
2016-04-28T04:43:38.606Z,92.38
2016-04-28T04:44:38.609Z,91.91
2016-04-28T04:45:38.612Z,91.91
2016-04-28T04:46:38.614Z,91.82
2016-04-28T04:47:38.617Z,92.1
2016-04-28T04:48:38.605Z,91.91
2016-04-28T04:49:38.607Z,92.19
2016-04-28T04:50:38.594Z,91.82
2016-04-28T04:51:38.597Z,91.91
2016-04-28T04:52:38.600Z,92
2016-04-28T04:53:38.602Z,92.38
2016-04-28T04:54:38.605Z,92.66
2016-04-28T04:55:38.608Z,92.43
2016-04-28T04:56:38.470Z,92.52
2016-04-28T04:57:38.598Z,92.99
2016-04-28T04:58:38.600Z,92.9
2016-04-28T04:59:38.604Z,92.8
2016-04-28T05:00:38.606Z,93.09
2016-04-28T05:01:38.593Z,93.99
2016-04-28T05:02:38.595Z,94.46
2016-04-28T05:03:38.598Z,95.07
2016-04-28T05:04:38.617Z,95.5
2016-04-28T05:05:38.603Z,95.45
2016-04-28T05:06:38.590Z,95.6
2016-04-28T05:07:38.593Z,95.45
2016-04-28T05:08:38.596Z,95.55
2016-04-28T05:09:38.598Z,95.03
2016-04-28T05:10:38.600Z,95.07
2016-04-28T05:11:38.744Z,94.46
2016-04-28T05:12:38.592Z,94.13
2016-04-28T05:13:38.594Z,93.51
2016-04-28T05:14:38.596Z,92.32
2016-04-28T05:15:38.600Z,91.42
2016-04-28T05:16:38.586Z,89.84
2016-04-28T05:17:38.589Z,87.75
2016-04-28T05:18:38.591Z,86.84
2016-04-28T05:19:38.595Z,84.69
2016-04-28T05:20:38.596Z,80.6
2016-04-28T05:21:38.600Z,77.3
2016-04-28T05:22:38.602Z,73.62
2016-04-28T05:23:38.588Z,69.17
2016-04-28T05:24:38.591Z,64.43
2016-04-28T05:25:38.595Z,59.69
2016-04-28T05:26:38.629Z,56.57
2016-04-28T05:27:38.615Z,49.21
2016-04-28T05:28:38.603Z,46.94
2016-04-28T05:29:38.605Z,45.6
2016-04-28T05:30:38.608Z,44.36
2016-04-28T05:31:38.610Z,42.37
2016-04-28T05:32:38.614Z,40.75
2016-04-28T05:33:38.615Z,38.95
2016-04-28T05:34:38.619Z,36.86
2016-04-28T05:35:38.621Z,34.1
2016-04-28T05:36:38.639Z,32.49
2016-04-28T05:37:38.626Z,31.05
2016-04-28T05:38:38.630Z,29.34
2016-04-28T05:39:38.632Z,27.72
2016-04-28T05:40:38.634Z,26.67
2016-04-28T05:41:39.387Z,25.52
2016-04-28T05:42:38.906Z,24.86
2016-04-28T05:43:38.643Z,24.28
2016-04-28T05:44:38.662Z,23.71
2016-04-28T05:45:38.664Z,22.76
2016-04-28T05:46:38.650Z,21.91
2016-04-28T05:47:38.654Z,21.04
2016-04-28T05:48:38.656Z,20.65
2016-04-28T05:49:38.659Z,20.94
2016-04-28T05:50:38.677Z,20.17
2016-04-28T05:51:38.681Z,19.6
2016-04-28T05:52:38.683Z,19.32
2016-04-28T05:53:38.686Z,18.93
2016-04-28T05:54:38.688Z,18.37
2016-04-28T05:55:38.691Z,17.98
2016-04-28T05:56:39.241Z,17.5
2016-04-28T05:57:38.712Z,17.02
2016-04-28T05:58:38.699Z,16.93
2016-04-28T05:59:38.718Z,16.93
2016-04-28T06:00:38.726Z,16.26
2016-04-28T06:01:38.785Z,16.17
2016-04-28T06:02:38.813Z,15.7
2016-04-28T06:03:38.856Z,15.7
2016-04-28T06:04:38.915Z,15.03
2016-04-28T06:05:38.954Z,14.94
2016-04-28T06:06:38.971Z,14.36
2016-04-28T06:07:38.989Z,14.45
2016-04-28T06:08:39.007Z,14.64
2016-04-28T06:09:39.039Z,14.26
2016-04-28T06:10:39.056Z,14.18
2016-04-28T06:11:39.079Z,13.8
2016-04-28T06:12:39.696Z,13.51
2016-04-28T06:13:39.078Z,12.94
2016-04-28T06:14:39.087Z,12.56
2016-04-28T06:15:39.109Z,11.7
2016-04-28T06:16:39.114Z,11.42
2016-04-28T06:17:39.118Z,10.94
2016-04-28T06:18:39.123Z,10.85
2016-04-28T06:19:39.143Z,10.36
2016-04-28T06:20:39.147Z,9.88
2016-04-28T06:21:39.167Z,9.4
2016-04-28T06:22:39.154Z,9.01
2016-04-28T06:23:39.157Z,8.83
2016-04-28T06:24:39.177Z,8.73
2016-04-28T06:25:39.181Z,8.44
2016-04-28T06:26:39.058Z,7.86
2016-04-28T06:27:39.202Z,7.57
2016-04-28T06:28:39.204Z,7.66
2016-04-28T06:29:39.208Z,7.28
2016-04-28T06:30:39.211Z,6.99
2016-04-28T06:31:39.229Z,6.6
2016-04-28T06:32:39.233Z,6.4
2016-04-28T06:33:39.235Z,6.99
2016-04-28T06:34:39.254Z,6.79
2016-04-28T06:35:39.257Z,6.41
2016-04-28T06:36:39.259Z,6.51
2016-04-28T06:37:39.261Z,6.6
2016-04-28T06:38:39.264Z,6.51
2016-04-28T06:39:39.282Z,6.51
2016-04-28T06:40:39.285Z,6.12
2016-04-28T06:41:39.147Z,6.02
2016-04-28T06:42:39.306Z,5.93
2016-04-28T06:43:39.325Z,5.64
2016-04-28T06:44:39.327Z,5.74
2016-04-28T06:45:39.330Z,5.26
2016-04-28T06:46:39.333Z,5.65
2016-04-28T06:47:39.336Z,5.84
2016-04-28T06:48:39.353Z,5.65
2016-04-28T06:49:39.356Z,5.45
2016-04-28T06:50:39.358Z,5.36
2016-04-28T06:51:39.378Z,4.88
2016-04-28T06:52:39.380Z,4.49
2016-04-28T06:53:39.398Z,3.91
2016-04-28T06:54:39.400Z,3.32
2016-04-28T06:55:39.403Z,2.83
2016-04-28T06:56:39.263Z,2.84
2016-04-28T06:57:39.424Z,2.15
2016-04-28T06:58:39.443Z,2.15
2016-04-28T06:59:39.445Z,1.96
2016-04-28T07:00:39.448Z,1.37
2016-04-28T07:01:39.467Z,1.18
2016-04-28T07:02:39.469Z,0.78
2016-04-28T07:03:39.471Z,0.49
2016-04-28T07:04:39.491Z,0.1
2016-04-28T07:05:39.493Z,0.1
2016-04-28T07:06:39.511Z,0
2016-04-28T07:07:39.511Z,0
2016-04-28T07:08:39.529Z,0.29
2016-04-28T07:09:39.532Z,0.1
2016-04-28T07:10:39.534Z,0.1
2016-04-28T07:11:43.103Z,0
2016-04-28T07:12:40.246Z,0.1
2016-04-28T07:13:39.559Z,0
2016-04-28T07:14:39.562Z,0
2016-04-28T07:15:39.564Z,0
2016-04-28T07:16:39.582Z,0
2016-04-28T07:17:39.584Z,0
2016-04-28T07:18:39.634Z,0.2
2016-04-28T07:19:39.622Z,0.1
2016-04-28T07:20:39.624Z,0
2016-04-28T07:21:39.642Z,0
2016-04-28T07:22:39.646Z,0
2016-04-28T07:23:39.665Z,0
2016-04-28T07:24:39.668Z,0
2016-04-28T07:25:39.670Z,0
2016-04-28T07:26:40.410Z,0
2016-04-28T07:27:39.692Z,0
2016-04-28T07:28:39.694Z,0
2016-04-28T07:29:39.696Z,0
2016-04-28T07:30:39.714Z,0
2016-04-28T07:31:39.717Z,0
2016-04-28T07:32:39.751Z,0
2016-04-28T07:33:39.739Z,0
2016-04-28T07:34:39.757Z,0
2016-04-28T07:35:39.759Z,0
2016-04-28T07:36:39.778Z,0
2016-04-28T07:37:39.796Z,0
2016-04-28T07:38:39.799Z,0
2016-04-28T07:39:39.801Z,0
2016-04-28T07:40:39.804Z,0
2016-04-28T07:41:39.807Z,0
2016-04-28T07:42:39.841Z,0
2016-04-28T07:43:39.827Z,0
2016-04-28T07:44:39.893Z,0
2016-04-28T07:45:39.849Z,0
2016-04-28T07:46:39.868Z,0
2016-04-28T07:47:39.871Z,0
2016-04-28T07:48:39.732Z,0
2016-04-28T07:49:39.921Z,0
2016-04-28T07:50:39.909Z,0
2016-04-28T07:51:39.912Z,0
2016-04-28T07:52:39.929Z,0
2016-04-28T07:53:39.932Z,0
2016-04-28T07:54:39.951Z,0
2016-04-28T07:55:40.501Z,0
2016-04-28T07:56:40.738Z,0
2016-04-28T07:57:40.585Z,0
2016-04-28T07:58:42.324Z,0
2016-04-28T07:59:39.996Z,0
2016-04-28T08:00:39.998Z,0
2016-04-28T08:01:40.017Z,0
2016-04-28T08:02:40.020Z,0
2016-04-28T08:03:40.038Z,0
2016-04-28T08:04:40.056Z,0
2016-04-28T08:05:40.043Z,0
2016-04-28T08:06:40.061Z,0
2016-04-28T08:07:40.097Z,0
2016-04-28T08:08:40.063Z,0
2016-04-28T08:09:40.065Z,0
2016-04-28T08:10:40.084Z,0
2016-04-28T08:11:39.977Z,0
2016-04-28T08:12:39.964Z,0
2016-04-28T08:13:41.703Z,0
2016-04-28T08:14:40.109Z,0
2016-04-28T08:15:40.129Z,0
2016-04-28T08:16:40.147Z,0
2016-04-28T08:17:40.150Z,0
2016-04-28T08:18:40.153Z,0
2016-04-28T08:19:40.171Z,0
2016-04-28T08:20:40.189Z,0
2016-04-28T08:21:40.175Z,0
2016-04-28T08:22:40.194Z,0
2016-04-28T08:23:40.197Z,0
2016-04-28T08:24:40.216Z,0
2016-04-28T08:25:40.218Z,0
2016-04-28T08:26:40.236Z,0
2016-04-28T08:27:40.364Z,0
2016-04-28T08:28:40.102Z,0
2016-04-28T08:29:40.261Z,0
2016-04-28T08:30:40.263Z,0
2016-04-28T08:31:40.266Z,0
2016-04-28T08:32:40.283Z,0
2016-04-28T08:33:40.286Z,0
2016-04-28T08:34:40.289Z,0
2016-04-28T08:35:40.307Z,0
2016-04-28T08:36:40.310Z,0
2016-04-28T08:37:40.329Z,0
2016-04-28T08:38:40.331Z,0
2016-04-28T08:39:40.349Z,0
2016-04-28T08:40:40.351Z,0
2016-04-28T08:41:40.371Z,0
2016-04-28T08:42:40.374Z,0
2016-04-28T08:43:40.392Z,0
2016-04-28T08:44:40.379Z,0
2016-04-28T08:45:40.240Z,0
2016-04-28T08:46:40.400Z,0
2016-04-28T08:47:40.418Z,0
2016-04-28T08:48:40.420Z,0
2016-04-28T08:49:40.423Z,0
2016-04-28T08:50:40.442Z,0
2016-04-28T08:51:40.445Z,0
2016-04-28T08:52:40.462Z,0
2016-04-28T08:53:40.465Z,0
2016-04-28T08:54:40.467Z,0
2016-04-28T08:55:40.470Z,0
2016-04-28T08:56:40.380Z,0
2016-04-28T08:57:40.539Z,0
2016-04-28T08:58:40.338Z,0
2016-04-28T08:59:40.497Z,0
2016-04-28T09:00:40.515Z,0
2016-04-28T09:01:40.518Z,0
2016-04-28T09:02:40.536Z,0
2016-04-28T09:03:40.539Z,0
2016-04-28T09:04:40.542Z,0
2016-04-28T09:05:40.560Z,0
2016-04-28T09:06:40.563Z,0
2016-04-28T09:07:40.566Z,0
2016-04-28T09:08:40.568Z,0
2016-04-28T09:09:40.587Z,0
2016-04-28T09:10:40.589Z,0
2016-04-28T09:11:40.607Z,0
2016-04-28T09:12:41.298Z,0
2016-04-28T09:13:40.613Z,0
2016-04-28T09:14:40.616Z,0
2016-04-28T09:15:40.634Z,0
2016-04-28T09:16:40.621Z,0
2016-04-28T09:17:40.639Z,0
2016-04-28T09:18:40.642Z,0
2016-04-28T09:19:40.645Z,0
2016-04-28T09:20:40.647Z,0
2016-04-28T09:21:40.665Z,0
2016-04-28T09:22:40.668Z,0
2016-04-28T09:23:40.670Z,0
2016-04-28T09:24:40.673Z,0
2016-04-28T09:25:40.692Z,0
2016-04-28T09:26:40.945Z,0
2016-04-28T09:27:41.166Z,0
2016-04-28T09:28:40.716Z,0
2016-04-28T09:29:40.718Z,0
2016-04-28T09:30:40.721Z,0
2016-04-28T09:31:40.723Z,0
2016-04-28T09:32:40.726Z,0
2016-04-28T09:33:40.730Z,0
2016-04-28T09:34:40.747Z,0
2016-04-28T09:35:40.781Z,0.97
2016-04-28T09:36:40.752Z,1.65
2016-04-28T09:37:40.755Z,2.72
2016-04-28T09:38:40.774Z,3.2
2016-04-28T09:39:40.776Z,4.45
2016-04-28T09:40:40.779Z,5.22
2016-04-28T09:41:40.781Z,6.37
2016-04-28T09:42:40.643Z,7.04
2016-04-28T09:43:40.788Z,7.71
2016-04-28T09:44:40.806Z,8.48
2016-04-28T09:45:40.793Z,9.14
2016-04-28T09:46:40.811Z,9.91
2016-04-28T09:47:40.814Z,10.29
2016-04-28T09:48:40.831Z,11.15
2016-04-28T09:49:40.819Z,11.91
2016-04-28T09:50:40.837Z,12.1
2016-04-28T09:51:40.840Z,12.1
2016-04-28T09:52:40.842Z,12.86
2016-04-28T09:53:40.861Z,13.43
2016-04-28T09:54:40.864Z,13.91
2016-04-28T09:55:40.866Z,14.48
2016-04-28T09:56:40.869Z,14.85
2016-04-28T09:57:41.605Z,15.23
2016-04-28T09:58:40.874Z,15.52
2016-04-28T09:59:40.877Z,16.28
2016-04-28T10:00:40.880Z,16.76
2016-04-28T10:01:40.898Z,16.47
2016-04-28T10:02:41.541Z,16.47
2016-04-28T10:03:40.919Z,16.09
2016-04-28T10:04:40.906Z,16.86
2016-04-28T10:05:40.908Z,17.24
2016-04-28T10:06:40.911Z,17.24
2016-04-28T10:07:40.914Z,17.14
2016-04-28T10:08:40.917Z,16.76
2016-04-28T10:09:40.920Z,17.05
2016-04-28T10:10:40.938Z,16.47
2016-04-28T10:11:40.941Z,15.89
2016-04-28T10:12:40.850Z,15.61
2016-04-28T10:13:40.945Z,15.7
2016-04-28T10:14:40.964Z,15.88
2016-04-28T10:15:40.968Z,16.08
2016-04-28T10:16:40.970Z,16.65
2016-04-28T10:17:41.112Z,16.84
2016-04-28T10:18:41.006Z,17.7
2016-04-28T10:19:40.993Z,18.18
2016-04-28T10:20:40.980Z,19.13
2016-04-28T10:21:40.999Z,19.52
2016-04-28T10:22:41.001Z,19.23
2016-04-28T10:23:41.004Z,19.62
2016-04-28T10:24:41.006Z,19.72
2016-04-28T10:25:41.010Z,19.34
2016-04-28T10:26:41.012Z,19.34
2016-04-28T10:27:43.593Z,18.68
2016-04-28T10:28:41.033Z,17.91
2016-04-28T10:29:41.036Z,16.86
2016-04-28T10:30:41.039Z,14.95
2016-04-28T10:31:41.041Z,15.05
2016-04-28T10:32:41.044Z,15.05
2016-04-28T10:33:41.047Z,14.95
2016-04-28T10:34:41.049Z,15.72
2016-04-28T10:35:41.068Z,15.81
2016-04-28T10:36:41.055Z,15.62
2016-04-28T10:37:41.074Z,16.67
2016-04-28T10:38:41.077Z,16.48
2016-04-28T10:39:41.078Z,14.58
2016-04-28T10:40:41.081Z,14.86
2016-04-28T10:41:41.099Z,14.76
2016-04-28T10:42:41.087Z,14.86
2016-04-28T10:43:41.089Z,14.67
2016-04-28T10:44:41.107Z,15.06
2016-04-28T10:45:41.110Z,14.67
2016-04-28T10:46:41.113Z,14.49
2016-04-28T10:47:41.116Z,14.11
2016-04-28T10:48:41.118Z,13.92
2016-04-28T10:49:41.121Z,13.92
2016-04-28T10:50:41.124Z,13.44
2016-04-28T10:51:41.126Z,13.44
2016-04-28T10:52:41.145Z,12.96
2016-04-28T10:53:41.147Z,13.06
2016-04-28T10:54:41.150Z,12.58
2016-04-28T10:55:41.153Z,12.77
2016-04-28T10:56:41.156Z,12.3
2016-04-28T10:57:41.752Z,12.2
2016-04-28T10:58:41.161Z,11.92
2016-04-28T10:59:41.164Z,11.82
2016-04-28T11:00:41.181Z,11.15
2016-04-28T11:01:41.184Z,11.63
2016-04-28T11:02:41.172Z,10.68
2016-04-28T11:03:41.190Z,10.19
2016-04-28T11:04:41.192Z,10.57
2016-04-28T11:05:41.195Z,10.95
2016-04-28T11:06:41.197Z,11.15
2016-04-28T11:07:41.200Z,12
2016-04-28T11:08:41.219Z,12.76
2016-04-28T11:09:41.205Z,12.96
2016-04-28T11:10:41.224Z,12.85
2016-04-28T11:11:41.227Z,13.14
2016-04-28T11:12:41.105Z,12.95
2016-04-28T11:13:41.248Z,13.13
2016-04-28T11:14:41.251Z,13.42
2016-04-28T11:15:41.254Z,13.71
2016-04-28T11:16:41.240Z,14
2016-04-28T11:17:41.259Z,14.86
2016-04-28T11:18:41.262Z,15.15
2016-04-28T11:19:41.264Z,14.95
2016-04-28T11:20:41.276Z,15.25
2016-04-28T11:21:41.278Z,15.23
2016-04-28T11:22:41.282Z,15.05
2016-04-28T11:23:41.285Z,15.62
2016-04-28T11:24:41.287Z,15.91
2016-04-28T11:25:41.290Z,16.47
2016-04-28T11:26:41.292Z,16.76
2016-04-28T11:27:41.155Z,16.76
2016-04-28T11:28:41.298Z,16.28
2016-04-28T11:29:41.300Z,16
2016-04-28T11:30:41.303Z,16.09
2016-04-28T11:31:41.305Z,15.71
2016-04-28T11:32:41.325Z,15.13
2016-04-28T11:33:41.328Z,15.13
2016-04-28T11:34:41.330Z,15.52
2016-04-28T11:35:41.332Z,15.71
2016-04-28T11:36:41.335Z,15.71
2016-04-28T11:37:41.337Z,15.8
2016-04-28T11:38:41.340Z,15.62
2016-04-28T11:39:41.343Z,16.58
2016-04-28T11:40:41.346Z,16.77
2016-04-28T11:41:41.365Z,16.11
2016-04-28T11:42:41.367Z,15.92
2016-04-28T11:43:41.354Z,15.72
2016-04-28T11:44:41.373Z,15.63
2016-04-28T11:45:41.376Z,15.72
2016-04-28T11:46:41.409Z,15.63
2016-04-28T11:47:41.396Z,15.82
2016-04-28T11:48:41.399Z,15.35
2016-04-28T11:49:41.401Z,14.97
2016-04-28T11:50:41.404Z,14.48
2016-04-28T11:51:41.392Z,14.2
2016-04-28T11:52:41.410Z,14.39
2016-04-28T11:53:41.397Z,14.58
2016-04-28T11:54:41.414Z,14.67
2016-04-28T11:55:41.417Z,15.35
2016-04-28T11:56:41.545Z,15.26
2016-04-28T11:57:41.486Z,14.69
2016-04-28T11:58:41.426Z,14.87
2016-04-28T11:59:41.444Z,14.87
2016-04-28T12:00:41.447Z,15.44
2016-04-28T12:01:41.450Z,16.31
2016-04-28T12:02:41.452Z,16.31
2016-04-28T12:03:41.455Z,15.73
2016-04-28T12:04:41.457Z,14.97
2016-04-28T12:05:41.476Z,14.87
2016-04-28T12:06:41.463Z,14.97
2016-04-28T12:07:41.466Z,14.78
2016-04-28T12:08:41.499Z,14.69
2016-04-28T12:09:41.471Z,14.78
2016-04-28T12:10:41.473Z,15.16
2016-04-28T12:11:41.492Z,16.11
2016-04-28T12:12:41.510Z,17.07
2016-04-28T12:13:41.498Z,17.07
2016-04-28T12:14:41.500Z,17.84
2016-04-28T12:15:41.503Z,18.02
2016-04-28T12:16:41.521Z,18.31
2016-04-28T12:17:41.509Z,18.89
2016-04-28T12:18:41.511Z,19.65
2016-04-28T12:19:41.529Z,20.22
2016-04-28T12:20:41.532Z,20.12
2016-04-28T12:21:41.520Z,20.98
2016-04-28T12:22:41.537Z,21.65
2016-04-28T12:23:41.540Z,21.92
2016-04-28T12:24:41.542Z,21.92
2016-04-28T12:25:41.561Z,22.02
2016-04-28T12:26:41.563Z,21.83
2016-04-28T12:27:41.706Z,21.35
2016-04-28T12:28:41.569Z,21.34
2016-04-28T12:29:41.572Z,21.91
2016-04-28T12:30:41.575Z,22.11
2016-04-28T12:31:41.577Z,22.11
2016-04-28T12:32:41.580Z,22.11
2016-04-28T12:33:41.598Z,22.11
2016-04-28T12:34:41.601Z,22.2
2016-04-28T12:35:41.587Z,22.01
2016-04-28T12:36:41.590Z,22.97
2016-04-28T12:37:41.593Z,23.25
2016-04-28T12:38:41.596Z,22.68
2016-04-28T12:39:41.599Z,22.28
2016-04-28T12:40:41.680Z,22.19
2016-04-28T12:41:41.619Z,22.67
2016-04-28T12:42:41.497Z,23.61
2016-04-28T12:43:41.625Z,23.33
2016-04-28T12:44:41.628Z,23.98
2016-04-28T12:45:41.629Z,24.37
2016-04-28T12:46:41.648Z,24.27
2016-04-28T12:47:41.651Z,24.07
2016-04-28T12:48:41.654Z,24.64
2016-04-28T12:49:41.734Z,25.21
2016-04-28T12:50:41.659Z,25.5
2016-04-28T12:51:41.662Z,25.5
2016-04-28T12:52:41.665Z,25.68
2016-04-28T12:53:41.667Z,25.39
2016-04-28T12:54:41.764Z,25.58
2016-04-28T12:55:41.689Z,25.39
2016-04-28T12:56:41.675Z,25.12
2016-04-28T12:57:41.600Z,24.93
2016-04-28T12:58:41.680Z,24.54
2016-04-28T12:59:41.683Z,24.07
2016-04-28T13:00:41.686Z,23.68
2016-04-28T13:01:41.705Z,23.49
2016-04-28T13:02:41.708Z,23.02
2016-04-28T13:03:41.694Z,23.39
2016-04-28T13:04:41.775Z,23.68
2016-04-28T13:05:41.716Z,23.49
2016-04-28T13:06:41.718Z,23.58
2016-04-28T13:07:41.721Z,23.38
2016-04-28T13:08:41.724Z,23.86
2016-04-28T13:09:41.727Z,23.77
2016-04-28T13:10:41.729Z,23.86
2016-04-28T13:11:41.732Z,23.38
2016-04-28T13:12:41.750Z,23.77
2016-04-28T13:13:41.737Z,23.77
2016-04-28T13:14:41.755Z,24.15
2016-04-28T13:15:41.757Z,24.15